sensor_id;sensor_type;location;lat;lon;timestamp;P1;durP1;ratioP1;P2;durP2;ratioP2
21550;SDS011;10936;49.836;7.078;2023-02-13T00:00:30;8.97;;;6.10;;
21550;SDS011;10936;49.836;7.078;2023-02-13T00:02:57;9.00;;;6.33;;
21550;SDS011;10936;49.836;7.078;2023-02-13T00:05:23;8.60;;;5.93;;
21550;SDS011;10936;49.836;7.078;2023-02-13T00:07:48;9.73;;;6.47;;
21550;SDS011;10936;49.836;7.078;2023-02-13T00:10:14;8.43;;;6.20;;
21550;SDS011;10936;49.836;7.078;2023-02-13T00:12:40;6.90;;;5.73;;
21550;SDS011;10936;49.836;7.078;2023-02-13T00:15:06;8.83;;;5.63;;
21550;SDS011;10936;49.836;7.078;2023-02-13T00:17:32;8.83;;;5.97;;
21550;SDS011;10936;49.836;7.078;2023-02-13T00:19:57;9.13;;;6.30;;
21550;SDS011;10936;49.836;7.078;2023-02-13T00:22:23;9.83;;;5.97;;
21550;SDS011;10936;49.836;7.078;2023-02-13T00:24:49;7.80;;;5.90;;
21550;SDS011;10936;49.836;7.078;2023-02-13T00:27:14;8.23;;;6.00;;
21550;SDS011;10936;49.836;7.078;2023-02-13T00:29:40;7.55;;;5.40;;
21550;SDS011;10936;49.836;7.078;2023-02-13T00:32:05;7.57;;;5.43;;
21550;SDS011;10936;49.836;7.078;2023-02-13T00:34:31;8.17;;;5.93;;
21550;SDS011;10936;49.836;7.078;2023-02-13T00:36:56;6.77;;;5.20;;
21550;SDS011;10936;49.836;7.078;2023-02-13T00:39:22;8.07;;;5.17;;
21550;SDS011;10936;49.836;7.078;2023-02-13T00:41:47;7.83;;;5.10;;
21550;SDS011;10936;49.836;7.078;2023-02-13T00:44:13;6.87;;;5.03;;
21550;SDS011;10936;49.836;7.078;2023-02-13T00:46:38;7.80;;;5.13;;
21550;SDS011;10936;49.836;7.078;2023-02-13T00:49:04;6.03;;;5.13;;
21550;SDS011;10936;49.836;7.078;2023-02-13T00:51:30;7.50;;;5.67;;
21550;SDS011;10936;49.836;7.078;2023-02-13T00:53:56;7.70;;;5.50;;
21550;SDS011;10936;49.836;7.078;2023-02-13T00:56:21;6.23;;;5.30;;
21550;SDS011;10936;49.836;7.078;2023-02-13T00:58:47;10.53;;;5.10;;
21550;SDS011;10936;49.836;7.078;2023-02-13T01:01:13;7.03;;;5.27;;
21550;SDS011;10936;49.836;7.078;2023-02-13T01:03:38;8.30;;;5.77;;
21550;SDS011;10936;49.836;7.078;2023-02-13T01:06:04;6.77;;;5.00;;
21550;SDS011;10936;49.836;7.078;2023-02-13T01:08:30;8.30;;;5.43;;
21550;SDS011;10936;49.836;7.078;2023-02-13T01:10:56;6.17;;;5.23;;
21550;SDS011;10936;49.836;7.078;2023-02-13T01:13:22;8.93;;;5.43;;
21550;SDS011;10936;49.836;7.078;2023-02-13T01:15:48;6.83;;;5.20;;
21550;SDS011;10936;49.836;7.078;2023-02-13T01:18:15;7.20;;;5.00;;
21550;SDS011;10936;49.836;7.078;2023-02-13T01:20:42;7.27;;;5.37;;
21550;SDS011;10936;49.836;7.078;2023-02-13T01:23:08;6.47;;;4.93;;
21550;SDS011;10936;49.836;7.078;2023-02-13T01:25:38;8.00;;;4.90;;
21550;SDS011;10936;49.836;7.078;2023-02-13T01:28:05;7.43;;;4.80;;
21550;SDS011;10936;49.836;7.078;2023-02-13T01:30:30;6.77;;;5.07;;
21550;SDS011;10936;49.836;7.078;2023-02-13T01:32:56;6.83;;;5.00;;
21550;SDS011;10936;49.836;7.078;2023-02-13T01:35:21;5.70;;;4.70;;
21550;SDS011;10936;49.836;7.078;2023-02-13T01:37:47;5.20;;;4.67;;
21550;SDS011;10936;49.836;7.078;2023-02-13T01:40:13;6.43;;;5.10;;
21550;SDS011;10936;49.836;7.078;2023-02-13T01:42:39;6.63;;;4.73;;
21550;SDS011;10936;49.836;7.078;2023-02-13T01:45:12;7.30;;;4.87;;
21550;SDS011;10936;49.836;7.078;2023-02-13T01:47:57;5.63;;;4.50;;
21550;SDS011;10936;49.836;7.078;2023-02-13T01:52:56;6.87;;;4.80;;
21550;SDS011;10936;49.836;7.078;2023-02-13T01:55:36;7.53;;;4.60;;
21550;SDS011;10936;49.836;7.078;2023-02-13T01:58:09;6.83;;;4.17;;
21550;SDS011;10936;49.836;7.078;2023-02-13T02:00:37;4.83;;;3.90;;
21550;SDS011;10936;49.836;7.078;2023-02-13T02:03:04;7.63;;;4.40;;
21550;SDS011;10936;49.836;7.078;2023-02-13T02:05:37;5.67;;;4.67;;
21550;SDS011;10936;49.836;7.078;2023-02-13T02:08:04;5.37;;;4.10;;
21550;SDS011;10936;49.836;7.078;2023-02-13T02:10:33;6.53;;;4.30;;
21550;SDS011;10936;49.836;7.078;2023-02-13T02:13:15;4.60;;;3.97;;
21550;SDS011;10936;49.836;7.078;2023-02-13T02:15:44;5.80;;;4.20;;
21550;SDS011;10936;49.836;7.078;2023-02-13T02:18:17;5.53;;;4.40;;
21550;SDS011;10936;49.836;7.078;2023-02-13T02:26:20;4.80;;;3.90;;
21550;SDS011;10936;49.836;7.078;2023-02-13T02:29:01;6.57;;;4.60;;
21550;SDS011;10936;49.836;7.078;2023-02-13T02:35:01;6.43;;;4.37;;
21550;SDS011;10936;49.836;7.078;2023-02-13T02:48:42;5.33;;;4.00;;
21550;SDS011;10936;49.836;7.078;2023-02-13T02:57:08;5.37;;;4.13;;
21550;SDS011;10936;49.836;7.078;2023-02-13T02:59:39;4.97;;;3.63;;
21550;SDS011;10936;49.836;7.078;2023-02-13T03:02:26;4.70;;;3.53;;
21550;SDS011;10936;49.836;7.078;2023-02-13T03:05:26;5.73;;;3.67;;
21550;SDS011;10936;49.836;7.078;2023-02-13T03:08:13;5.33;;;3.67;;
21550;SDS011;10936;49.836;7.078;2023-02-13T03:10:39;5.47;;;3.70;;
21550;SDS011;10936;49.836;7.078;2023-02-13T03:13:30;5.70;;;3.97;;
21550;SDS011;10936;49.836;7.078;2023-02-13T03:15:58;5.83;;;3.83;;
21550;SDS011;10936;49.836;7.078;2023-02-13T03:18:45;4.87;;;3.57;;
21550;SDS011;10936;49.836;7.078;2023-02-13T03:24:59;5.10;;;3.60;;
21550;SDS011;10936;49.836;7.078;2023-02-13T03:27:32;4.17;;;3.30;;
21550;SDS011;10936;49.836;7.078;2023-02-13T03:32:56;5.23;;;3.77;;
21550;SDS011;10936;49.836;7.078;2023-02-13T03:41:40;5.03;;;3.50;;
21550;SDS011;10936;49.836;7.078;2023-02-13T03:46:56;4.77;;;3.70;;
21550;SDS011;10936;49.836;7.078;2023-02-13T03:49:34;3.77;;;3.10;;
21550;SDS011;10936;49.836;7.078;2023-02-13T03:55:18;4.37;;;3.70;;
21550;SDS011;10936;49.836;7.078;2023-02-13T03:58:12;4.27;;;3.20;;
21550;SDS011;10936;49.836;7.078;2023-02-13T04:01:00;4.57;;;3.43;;
21550;SDS011;10936;49.836;7.078;2023-02-13T04:03:36;4.20;;;3.30;;
21550;SDS011;10936;49.836;7.078;2023-02-13T04:06:20;5.53;;;3.23;;
21550;SDS011;10936;49.836;7.078;2023-02-13T04:09:01;3.70;;;3.30;;
21550;SDS011;10936;49.836;7.078;2023-02-13T04:14:18;4.17;;;3.50;;
21550;SDS011;10936;49.836;7.078;2023-02-13T04:16:57;4.67;;;3.47;;
21550;SDS011;10936;49.836;7.078;2023-02-13T04:19:27;3.83;;;3.10;;
21550;SDS011;10936;49.836;7.078;2023-02-13T04:21:55;4.40;;;3.53;;
21550;SDS011;10936;49.836;7.078;2023-02-13T04:24:23;3.70;;;3.33;;
21550;SDS011;10936;49.836;7.078;2023-02-13T04:26:50;3.70;;;3.17;;
21550;SDS011;10936;49.836;7.078;2023-02-13T04:29:16;4.67;;;3.50;;
21550;SDS011;10936;49.836;7.078;2023-02-13T04:31:41;4.33;;;3.37;;
21550;SDS011;10936;49.836;7.078;2023-02-13T04:34:07;3.90;;;3.23;;
21550;SDS011;10936;49.836;7.078;2023-02-13T04:36:33;3.87;;;3.10;;
21550;SDS011;10936;49.836;7.078;2023-02-13T04:38:58;4.60;;;2.90;;
21550;SDS011;10936;49.836;7.078;2023-02-13T04:41:24;5.90;;;3.40;;
21550;SDS011;10936;49.836;7.078;2023-02-13T04:43:49;3.93;;;3.40;;
21550;SDS011;10936;49.836;7.078;2023-02-13T04:46:16;3.33;;;2.90;;
21550;SDS011;10936;49.836;7.078;2023-02-13T04:48:42;3.73;;;2.80;;
21550;SDS011;10936;49.836;7.078;2023-02-13T04:51:07;4.37;;;3.20;;
21550;SDS011;10936;49.836;7.078;2023-02-13T04:53:33;3.60;;;2.83;;
21550;SDS011;10936;49.836;7.078;2023-02-13T04:55:58;3.13;;;2.83;;
21550;SDS011;10936;49.836;7.078;2023-02-13T04:58:24;4.10;;;3.00;;
21550;SDS011;10936;49.836;7.078;2023-02-13T05:00:50;5.60;;;3.23;;
21550;SDS011;10936;49.836;7.078;2023-02-13T05:03:15;3.10;;;2.53;;
21550;SDS011;10936;49.836;7.078;2023-02-13T05:05:41;4.43;;;3.00;;
21550;SDS011;10936;49.836;7.078;2023-02-13T05:08:07;3.87;;;2.93;;
21550;SDS011;10936;49.836;7.078;2023-02-13T05:10:33;3.60;;;3.07;;
21550;SDS011;10936;49.836;7.078;2023-02-13T05:12:59;3.93;;;2.83;;
21550;SDS011;10936;49.836;7.078;2023-02-13T05:15:25;5.07;;;3.20;;
21550;SDS011;10936;49.836;7.078;2023-02-13T05:17:51;4.43;;;3.07;;
21550;SDS011;10936;49.836;7.078;2023-02-13T05:20:16;3.13;;;2.83;;
21550;SDS011;10936;49.836;7.078;2023-02-13T05:22:46;4.70;;;2.90;;
21550;SDS011;10936;49.836;7.078;2023-02-13T05:25:31;3.40;;;3.00;;
21550;SDS011;10936;49.836;7.078;2023-02-13T05:27:57;3.77;;;3.00;;
21550;SDS011;10936;49.836;7.078;2023-02-13T05:30:23;4.03;;;2.70;;
21550;SDS011;10936;49.836;7.078;2023-02-13T05:32:49;3.93;;;3.10;;
21550;SDS011;10936;49.836;7.078;2023-02-13T05:35:18;3.40;;;2.60;;
21550;SDS011;10936;49.836;7.078;2023-02-13T05:37:48;2.90;;;2.40;;
21550;SDS011;10936;49.836;7.078;2023-02-13T05:40:14;3.23;;;2.93;;
21550;SDS011;10936;49.836;7.078;2023-02-13T05:42:40;3.67;;;3.00;;
21550;SDS011;10936;49.836;7.078;2023-02-13T05:45:07;3.30;;;2.67;;
21550;SDS011;10936;49.836;7.078;2023-02-13T05:47:33;3.33;;;2.50;;
21550;SDS011;10936;49.836;7.078;2023-02-13T05:49:59;4.07;;;3.00;;
21550;SDS011;10936;49.836;7.078;2023-02-13T05:52:24;4.17;;;2.67;;
21550;SDS011;10936;49.836;7.078;2023-02-13T05:54:51;5.10;;;3.17;;
21550;SDS011;10936;49.836;7.078;2023-02-13T05:57:16;3.10;;;2.77;;
21550;SDS011;10936;49.836;7.078;2023-02-13T05:59:42;3.63;;;2.87;;
21550;SDS011;10936;49.836;7.078;2023-02-13T06:02:08;3.23;;;2.90;;
21550;SDS011;10936;49.836;7.078;2023-02-13T06:04:34;3.33;;;2.73;;
21550;SDS011;10936;49.836;7.078;2023-02-13T06:07:00;3.80;;;3.00;;
21550;SDS011;10936;49.836;7.078;2023-02-13T06:09:25;3.20;;;2.80;;
21550;SDS011;10936;49.836;7.078;2023-02-13T06:11:51;3.03;;;2.43;;
21550;SDS011;10936;49.836;7.078;2023-02-13T06:14:16;3.10;;;2.70;;
21550;SDS011;10936;49.836;7.078;2023-02-13T06:16:42;3.37;;;3.07;;
21550;SDS011;10936;49.836;7.078;2023-02-13T06:19:07;3.07;;;2.50;;
21550;SDS011;10936;49.836;7.078;2023-02-13T06:21:33;4.07;;;2.80;;
21550;SDS011;10936;49.836;7.078;2023-02-13T06:24:02;2.67;;;2.43;;
21550;SDS011;10936;49.836;7.078;2023-02-13T06:26:31;3.03;;;2.70;;
21550;SDS011;10936;49.836;7.078;2023-02-13T06:28:57;4.57;;;3.03;;
21550;SDS011;10936;49.836;7.078;2023-02-13T06:31:22;4.07;;;2.80;;
21550;SDS011;10936;49.836;7.078;2023-02-13T06:33:48;4.47;;;2.70;;
21550;SDS011;10936;49.836;7.078;2023-02-13T06:36:14;2.90;;;2.40;;
21550;SDS011;10936;49.836;7.078;2023-02-13T06:38:39;3.63;;;2.67;;
21550;SDS011;10936;49.836;7.078;2023-02-13T06:41:05;2.40;;;2.20;;
21550;SDS011;10936;49.836;7.078;2023-02-13T06:43:31;3.27;;;2.60;;
21550;SDS011;10936;49.836;7.078;2023-02-13T06:45:57;4.20;;;2.80;;
21550;SDS011;10936;49.836;7.078;2023-02-13T06:48:23;5.40;;;2.77;;
21550;SDS011;10936;49.836;7.078;2023-02-13T06:50:49;4.77;;;2.90;;
21550;SDS011;10936;49.836;7.078;2023-02-13T06:53:16;2.97;;;2.67;;
21550;SDS011;10936;49.836;7.078;2023-02-13T06:55:44;2.70;;;2.50;;
21550;SDS011;10936;49.836;7.078;2023-02-13T06:58:09;3.63;;;2.80;;
21550;SDS011;10936;49.836;7.078;2023-02-13T07:00:35;3.20;;;2.90;;
21550;SDS011;10936;49.836;7.078;2023-02-13T07:03:02;5.47;;;2.40;;
21550;SDS011;10936;49.836;7.078;2023-02-13T07:05:29;3.53;;;2.70;;
21550;SDS011;10936;49.836;7.078;2023-02-13T07:07:54;3.77;;;2.80;;
21550;SDS011;10936;49.836;7.078;2023-02-13T07:10:20;3.47;;;2.67;;
21550;SDS011;10936;49.836;7.078;2023-02-13T07:12:45;3.10;;;2.53;;
21550;SDS011;10936;49.836;7.078;2023-02-13T07:15:11;4.33;;;2.70;;
21550;SDS011;10936;49.836;7.078;2023-02-13T07:17:37;5.23;;;2.87;;
21550;SDS011;10936;49.836;7.078;2023-02-13T07:20:03;4.27;;;2.93;;
21550;SDS011;10936;49.836;7.078;2023-02-13T07:22:30;3.27;;;2.80;;
21550;SDS011;10936;49.836;7.078;2023-02-13T07:24:57;4.53;;;3.03;;
21550;SDS011;10936;49.836;7.078;2023-02-13T07:27:24;3.57;;;3.00;;
21550;SDS011;10936;49.836;7.078;2023-02-13T07:29:50;4.03;;;2.83;;
21550;SDS011;10936;49.836;7.078;2023-02-13T07:32:15;5.90;;;2.90;;
21550;SDS011;10936;49.836;7.078;2023-02-13T07:34:41;3.50;;;2.70;;
21550;SDS011;10936;49.836;7.078;2023-02-13T07:37:06;3.37;;;2.90;;
21550;SDS011;10936;49.836;7.078;2023-02-13T07:39:32;4.10;;;3.03;;
21550;SDS011;10936;49.836;7.078;2023-02-13T07:41:57;4.47;;;3.03;;
21550;SDS011;10936;49.836;7.078;2023-02-13T07:44:23;4.00;;;2.93;;
21550;SDS011;10936;49.836;7.078;2023-02-13T07:46:48;4.27;;;2.70;;
21550;SDS011;10936;49.836;7.078;2023-02-13T07:49:14;4.07;;;3.13;;
21550;SDS011;10936;49.836;7.078;2023-02-13T07:51:39;5.13;;;3.17;;
21550;SDS011;10936;49.836;7.078;2023-02-13T07:54:05;3.87;;;2.70;;
21550;SDS011;10936;49.836;7.078;2023-02-13T07:56:30;7.80;;;3.23;;
21550;SDS011;10936;49.836;7.078;2023-02-13T07:58:56;6.07;;;3.23;;
21550;SDS011;10936;49.836;7.078;2023-02-13T08:01:22;6.30;;;3.37;;
21550;SDS011;10936;49.836;7.078;2023-02-13T08:03:48;7.80;;;3.17;;
21550;SDS011;10936;49.836;7.078;2023-02-13T08:06:15;7.73;;;3.70;;
21550;SDS011;10936;49.836;7.078;2023-02-13T08:08:41;10.77;;;3.43;;
21550;SDS011;10936;49.836;7.078;2023-02-13T08:11:21;5.83;;;3.10;;
21550;SDS011;10936;49.836;7.078;2023-02-13T08:14:11;7.40;;;4.00;;
21550;SDS011;10936;49.836;7.078;2023-02-13T08:16:36;9.73;;;3.90;;
21550;SDS011;10936;49.836;7.078;2023-02-13T08:19:02;10.20;;;3.73;;
21550;SDS011;10936;49.836;7.078;2023-02-13T08:21:27;8.00;;;3.50;;
21550;SDS011;10936;49.836;7.078;2023-02-13T08:23:53;8.90;;;3.03;;
21550;SDS011;10936;49.836;7.078;2023-02-13T08:26:18;8.83;;;3.70;;
21550;SDS011;10936;49.836;7.078;2023-02-13T08:28:45;5.33;;;2.90;;
21550;SDS011;10936;49.836;7.078;2023-02-13T08:31:11;6.23;;;3.00;;
21550;SDS011;10936;49.836;7.078;2023-02-13T08:33:37;7.17;;;3.07;;
21550;SDS011;10936;49.836;7.078;2023-02-13T08:36:03;8.77;;;3.40;;
21550;SDS011;10936;49.836;7.078;2023-02-13T08:38:30;7.43;;;3.67;;
21550;SDS011;10936;49.836;7.078;2023-02-13T08:40:56;5.17;;;3.20;;
21550;SDS011;10936;49.836;7.078;2023-02-13T08:43:21;6.33;;;2.73;;
21550;SDS011;10936;49.836;7.078;2023-02-13T08:45:47;5.50;;;3.17;;
21550;SDS011;10936;49.836;7.078;2023-02-13T08:48:12;9.27;;;3.80;;
21550;SDS011;10936;49.836;7.078;2023-02-13T08:50:38;6.33;;;3.30;;
21550;SDS011;10936;49.836;7.078;2023-02-13T08:53:04;5.80;;;3.33;;
21550;SDS011;10936;49.836;7.078;2023-02-13T08:55:29;6.50;;;3.03;;
21550;SDS011;10936;49.836;7.078;2023-02-13T08:57:58;7.07;;;2.90;;
21550;SDS011;10936;49.836;7.078;2023-02-13T09:00:27;7.17;;;3.40;;
21550;SDS011;10936;49.836;7.078;2023-02-13T09:02:53;6.43;;;3.20;;
21550;SDS011;10936;49.836;7.078;2023-02-13T09:05:18;6.75;;;3.08;;
21550;SDS011;10936;49.836;7.078;2023-02-13T09:07:44;6.47;;;3.27;;
21550;SDS011;10936;49.836;7.078;2023-02-13T09:10:09;8.05;;;3.13;;
21550;SDS011;10936;49.836;7.078;2023-02-13T09:12:35;6.03;;;3.57;;
21550;SDS011;10936;49.836;7.078;2023-02-13T09:15:01;4.95;;;3.13;;
21550;SDS011;10936;49.836;7.078;2023-02-13T09:17:27;7.60;;;2.95;;
21550;SDS011;10936;49.836;7.078;2023-02-13T09:19:52;4.70;;;2.70;;
21550;SDS011;10936;49.836;7.078;2023-02-13T09:22:18;6.93;;;3.13;;
21550;SDS011;10936;49.836;7.078;2023-02-13T09:24:43;6.43;;;3.17;;
21550;SDS011;10936;49.836;7.078;2023-02-13T09:27:09;6.57;;;2.67;;
21550;SDS011;10936;49.836;7.078;2023-02-13T09:29:34;6.38;;;3.20;;
21550;SDS011;10936;49.836;7.078;2023-02-13T09:32:00;7.13;;;3.40;;
21550;SDS011;10936;49.836;7.078;2023-02-13T09:34:25;6.22;;;2.55;;
21550;SDS011;10936;49.836;7.078;2023-02-13T09:36:51;7.78;;;2.83;;
21550;SDS011;10936;49.836;7.078;2023-02-13T09:39:21;5.78;;;3.35;;
21550;SDS011;10936;49.836;7.078;2023-02-13T09:41:48;7.03;;;2.75;;
21550;SDS011;10936;49.836;7.078;2023-02-13T09:44:20;7.38;;;2.70;;
21550;SDS011;10936;49.836;7.078;2023-02-13T09:47:03;5.32;;;2.92;;
21550;SDS011;10936;49.836;7.078;2023-02-13T09:49:49;5.20;;;2.92;;
21550;SDS011;10936;49.836;7.078;2023-02-13T09:52:18;6.15;;;2.50;;
21550;SDS011;10936;49.836;7.078;2023-02-13T09:54:44;6.47;;;3.05;;
21550;SDS011;10936;49.836;7.078;2023-02-13T09:57:18;5.30;;;2.95;;
21550;SDS011;10936;49.836;7.078;2023-02-13T10:07:44;4.85;;;2.92;;
21550;SDS011;10936;49.836;7.078;2023-02-13T10:10:32;4.72;;;2.85;;
21550;SDS011;10936;49.836;7.078;2023-02-13T10:16:08;5.15;;;2.80;;
21550;SDS011;10936;49.836;7.078;2023-02-13T10:18:47;3.78;;;2.40;;
21550;SDS011;10936;49.836;7.078;2023-02-13T10:21:23;4.53;;;2.72;;
21550;SDS011;10936;49.836;7.078;2023-02-13T10:26:43;4.57;;;2.40;;
21550;SDS011;10936;49.836;7.078;2023-02-13T10:29:13;3.53;;;2.40;;
21550;SDS011;10936;49.836;7.078;2023-02-13T10:32:04;3.58;;;2.53;;
21550;SDS011;10936;49.836;7.078;2023-02-13T10:34:37;5.35;;;2.90;;
21550;SDS011;10936;49.836;7.078;2023-02-13T10:37:19;4.03;;;2.58;;
21550;SDS011;10936;49.836;7.078;2023-02-13T10:39:49;5.72;;;2.63;;
21550;SDS011;10936;49.836;7.078;2023-02-13T10:47:25;5.20;;;2.38;;
21550;SDS011;10936;49.836;7.078;2023-02-13T10:58:31;4.38;;;2.33;;
21550;SDS011;10936;49.836;7.078;2023-02-13T11:01:06;4.97;;;2.60;;
21550;SDS011;10936;49.836;7.078;2023-02-13T11:04:04;3.17;;;2.40;;
21550;SDS011;10936;49.836;7.078;2023-02-13T11:06:35;4.43;;;2.58;;
21550;SDS011;10936;49.836;7.078;2023-02-13T11:09:04;3.08;;;1.98;;
21550;SDS011;10936;49.836;7.078;2023-02-13T11:11:39;3.53;;;2.85;;
21550;SDS011;10936;49.836;7.078;2023-02-13T11:19:24;5.32;;;2.17;;
21550;SDS011;10936;49.836;7.078;2023-02-13T11:22:11;3.80;;;2.63;;
21550;SDS011;10936;49.836;7.078;2023-02-13T11:24:38;3.83;;;2.20;;
21550;SDS011;10936;49.836;7.078;2023-02-13T11:27:07;5.22;;;2.42;;
21550;SDS011;10936;49.836;7.078;2023-02-13T11:29:54;2.40;;;1.77;;
21550;SDS011;10936;49.836;7.078;2023-02-13T11:32:23;3.53;;;2.40;;
21550;SDS011;10936;49.836;7.078;2023-02-13T11:34:56;3.67;;;2.45;;
21550;SDS011;10936;49.836;7.078;2023-02-13T11:37:30;3.55;;;2.63;;
21550;SDS011;10936;49.836;7.078;2023-02-13T11:39:57;3.38;;;2.08;;
21550;SDS011;10936;49.836;7.078;2023-02-13T11:47:33;2.85;;;1.92;;
21550;SDS011;10936;49.836;7.078;2023-02-13T11:50:01;2.60;;;2.00;;
21550;SDS011;10936;49.836;7.078;2023-02-13T11:52:30;3.47;;;2.30;;
21550;SDS011;10936;49.836;7.078;2023-02-13T11:55:01;3.80;;;1.95;;
21550;SDS011;10936;49.836;7.078;2023-02-13T11:57:55;3.53;;;2.10;;
21550;SDS011;10936;49.836;7.078;2023-02-13T12:00:41;3.40;;;2.42;;
21550;SDS011;10936;49.836;7.078;2023-02-13T12:03:24;2.75;;;2.05;;
21550;SDS011;10936;49.836;7.078;2023-02-13T12:06:05;2.60;;;1.83;;
21550;SDS011;10936;49.836;7.078;2023-02-13T12:08:40;5.78;;;2.50;;
21550;SDS011;10936;49.836;7.078;2023-02-13T12:13:45;3.35;;;2.08;;
21550;SDS011;10936;49.836;7.078;2023-02-13T12:19:00;3.63;;;2.10;;
21550;SDS011;10936;49.836;7.078;2023-02-13T12:21:42;2.72;;;1.83;;
21550;SDS011;10936;49.836;7.078;2023-02-13T12:35:07;2.85;;;1.63;;
21550;SDS011;10936;49.836;7.078;2023-02-13T12:58:16;2.80;;;2.35;;
21550;SDS011;10936;49.836;7.078;2023-02-13T13:07:04;2.95;;;2.03;;
21550;SDS011;10936;49.836;7.078;2023-02-13T13:12:20;3.05;;;2.10;;
21550;SDS011;10936;49.836;7.078;2023-02-13T13:15:12;4.00;;;2.10;;
21550;SDS011;10936;49.836;7.078;2023-02-13T13:26:48;3.50;;;2.58;;
21550;SDS011;10936;49.836;7.078;2023-02-13T13:29:19;3.65;;;2.60;;
21550;SDS011;10936;49.836;7.078;2023-02-13T13:31:52;3.33;;;2.30;;
21550;SDS011;10936;49.836;7.078;2023-02-13T13:34:22;4.25;;;2.15;;
21550;SDS011;10936;49.836;7.078;2023-02-13T13:37:03;3.33;;;2.28;;
21550;SDS011;10936;49.836;7.078;2023-02-13T13:39:36;5.28;;;2.30;;
21550;SDS011;10936;49.836;7.078;2023-02-13T13:50:23;2.60;;;2.13;;
21550;SDS011;10936;49.836;7.078;2023-02-13T13:58:58;4.00;;;2.20;;
21550;SDS011;10936;49.836;7.078;2023-02-13T14:01:14;3.80;;;2.65;;
21550;SDS011;10936;49.836;7.078;2023-02-13T14:03:53;4.90;;;2.50;;
21550;SDS011;10936;49.836;7.078;2023-02-13T14:06:27;3.47;;;2.20;;
21550;SDS011;10936;49.836;7.078;2023-02-13T14:09:36;3.27;;;2.20;;
21550;SDS011;10936;49.836;7.078;2023-02-13T14:12:34;2.90;;;2.10;;
21550;SDS011;10936;49.836;7.078;2023-02-13T14:14:53;4.53;;;2.30;;
21550;SDS011;10936;49.836;7.078;2023-02-13T14:20:20;4.15;;;2.50;;
21550;SDS011;10936;49.836;7.078;2023-02-13T14:25:45;4.38;;;2.58;;
21550;SDS011;10936;49.836;7.078;2023-02-13T14:28:22;3.45;;;2.10;;
21550;SDS011;10936;49.836;7.078;2023-02-13T14:30:50;3.67;;;2.37;;
21550;SDS011;10936;49.836;7.078;2023-02-13T14:33:28;3.83;;;2.43;;
21550;SDS011;10936;49.836;7.078;2023-02-13T14:36:19;3.80;;;2.50;;
21550;SDS011;10936;49.836;7.078;2023-02-13T14:38:56;4.05;;;2.22;;
21550;SDS011;10936;49.836;7.078;2023-02-13T14:44:18;3.67;;;2.00;;
21550;SDS011;10936;49.836;7.078;2023-02-13T14:47:05;6.43;;;2.03;;
21550;SDS011;10936;49.836;7.078;2023-02-13T14:49:42;2.90;;;2.10;;
21550;SDS011;10936;49.836;7.078;2023-02-13T14:52:14;2.75;;;1.95;;
21550;SDS011;10936;49.836;7.078;2023-02-13T14:54:50;3.17;;;1.83;;
21550;SDS011;10936;49.836;7.078;2023-02-13T14:57:29;3.90;;;2.75;;
21550;SDS011;10936;49.836;7.078;2023-02-13T15:00:06;3.00;;;2.40;;
21550;SDS011;10936;49.836;7.078;2023-02-13T15:02:57;4.25;;;2.47;;
21550;SDS011;10936;49.836;7.078;2023-02-13T15:05:30;3.30;;;2.05;;
21550;SDS011;10936;49.836;7.078;2023-02-13T15:08:02;3.42;;;2.22;;
21550;SDS011;10936;49.836;7.078;2023-02-13T15:13:20;3.45;;;2.42;;
21550;SDS011;10936;49.836;7.078;2023-02-13T15:15:57;5.20;;;2.45;;
21550;SDS011;10936;49.836;7.078;2023-02-13T15:18:38;4.30;;;2.37;;
21550;SDS011;10936;49.836;7.078;2023-02-13T15:21:14;3.15;;;2.10;;
21550;SDS011;10936;49.836;7.078;2023-02-13T15:23:42;2.80;;;1.90;;
21550;SDS011;10936;49.836;7.078;2023-02-13T15:26:18;3.03;;;1.90;;
21550;SDS011;10936;49.836;7.078;2023-02-13T15:28:45;3.38;;;2.10;;
21550;SDS011;10936;49.836;7.078;2023-02-13T15:31:40;4.83;;;2.10;;
21550;SDS011;10936;49.836;7.078;2023-02-13T15:37:01;2.97;;;2.03;;
21550;SDS011;10936;49.836;7.078;2023-02-13T15:39:28;3.13;;;2.20;;
21550;SDS011;10936;49.836;7.078;2023-02-13T15:41:58;4.97;;;1.80;;
21550;SDS011;10936;49.836;7.078;2023-02-13T15:46:58;3.10;;;2.13;;
21550;SDS011;10936;49.836;7.078;2023-02-13T15:49:38;3.20;;;1.70;;
21550;SDS011;10936;49.836;7.078;2023-02-13T15:52:07;2.53;;;1.73;;
21550;SDS011;10936;49.836;7.078;2023-02-13T15:54:54;3.00;;;2.00;;
21550;SDS011;10936;49.836;7.078;2023-02-13T15:57:20;4.20;;;2.63;;
21550;SDS011;10936;49.836;7.078;2023-02-13T15:59:48;3.80;;;2.10;;
21550;SDS011;10936;49.836;7.078;2023-02-13T16:02:17;3.80;;;1.90;;
21550;SDS011;10936;49.836;7.078;2023-02-13T16:04:45;4.20;;;1.90;;
21550;SDS011;10936;49.836;7.078;2023-02-13T16:07:14;2.20;;;1.60;;
21550;SDS011;10936;49.836;7.078;2023-02-13T16:09:40;2.87;;;1.90;;
21550;SDS011;10936;49.836;7.078;2023-02-13T16:12:14;2.57;;;1.93;;
21550;SDS011;10936;49.836;7.078;2023-02-13T16:14:54;2.30;;;1.70;;
21550;SDS011;10936;49.836;7.078;2023-02-13T16:17:30;3.40;;;1.80;;
21550;SDS011;10936;49.836;7.078;2023-02-13T16:20:02;2.38;;;1.98;;
21550;SDS011;10936;49.836;7.078;2023-02-13T16:27:44;2.40;;;1.60;;
21550;SDS011;10936;49.836;7.078;2023-02-13T16:30:31;2.87;;;1.67;;
21550;SDS011;10936;49.836;7.078;2023-02-13T16:33:10;3.07;;;1.80;;
21550;SDS011;10936;49.836;7.078;2023-02-13T16:35:40;2.47;;;1.63;;
21550;SDS011;10936;49.836;7.078;2023-02-13T16:40:59;2.40;;;1.60;;
21550;SDS011;10936;49.836;7.078;2023-02-13T16:46:15;2.53;;;1.70;;
21550;SDS011;10936;49.836;7.078;2023-02-13T16:48:43;1.80;;;1.60;;
21550;SDS011;10936;49.836;7.078;2023-02-13T16:59:40;2.20;;;1.60;;
21550;SDS011;10936;49.836;7.078;2023-02-13T17:02:21;2.47;;;1.67;;
21550;SDS011;10936;49.836;7.078;2023-02-13T17:07:20;3.63;;;1.73;;
21550;SDS011;10936;49.836;7.078;2023-02-13T17:09:52;2.27;;;1.53;;
21550;SDS011;10936;49.836;7.078;2023-02-13T17:12:26;2.50;;;1.80;;
21550;SDS011;10936;49.836;7.078;2023-02-13T17:14:53;2.40;;;1.60;;
21550;SDS011;10936;49.836;7.078;2023-02-13T17:17:21;2.23;;;1.40;;
21550;SDS011;10936;49.836;7.078;2023-02-13T17:19:47;2.87;;;1.93;;
21550;SDS011;10936;49.836;7.078;2023-02-13T17:22:18;2.10;;;1.63;;
21550;SDS011;10936;49.836;7.078;2023-02-13T17:24:57;3.78;;;1.90;;
21550;SDS011;10936;49.836;7.078;2023-02-13T17:27:23;2.03;;;1.60;;
21550;SDS011;10936;49.836;7.078;2023-02-13T17:29:49;1.93;;;1.53;;
21550;SDS011;10936;49.836;7.078;2023-02-13T17:32:16;3.70;;;1.70;;
21550;SDS011;10936;49.836;7.078;2023-02-13T17:34:43;2.00;;;1.70;;
21550;SDS011;10936;49.836;7.078;2023-02-13T17:37:17;2.37;;;1.83;;
21550;SDS011;10936;49.836;7.078;2023-02-13T17:39:47;2.60;;;1.60;;
21550;SDS011;10936;49.836;7.078;2023-02-13T17:42:14;4.03;;;2.00;;
21550;SDS011;10936;49.836;7.078;2023-02-13T17:44:50;2.27;;;1.47;;
21550;SDS011;10936;49.836;7.078;2023-02-13T17:47:17;3.20;;;1.90;;
21550;SDS011;10936;49.836;7.078;2023-02-13T17:49:42;2.30;;;1.73;;
21550;SDS011;10936;49.836;7.078;2023-02-13T17:52:12;2.80;;;1.60;;
21550;SDS011;10936;49.836;7.078;2023-02-13T17:54:40;3.33;;;1.83;;
21550;SDS011;10936;49.836;7.078;2023-02-13T17:57:07;2.33;;;1.70;;
21550;SDS011;10936;49.836;7.078;2023-02-13T17:59:33;2.90;;;2.10;;
21550;SDS011;10936;49.836;7.078;2023-02-13T18:01:59;4.27;;;2.10;;
21550;SDS011;10936;49.836;7.078;2023-02-13T18:04:24;4.27;;;1.90;;
21550;SDS011;10936;49.836;7.078;2023-02-13T18:06:52;2.47;;;1.80;;
21550;SDS011;10936;49.836;7.078;2023-02-13T18:09:18;2.87;;;1.93;;
21550;SDS011;10936;49.836;7.078;2023-02-13T18:11:48;1.97;;;1.70;;
21550;SDS011;10936;49.836;7.078;2023-02-13T18:14:14;4.93;;;2.10;;
21550;SDS011;10936;49.836;7.078;2023-02-13T18:16:40;2.57;;;1.70;;
21550;SDS011;10936;49.836;7.078;2023-02-13T18:19:05;3.40;;;1.80;;
21550;SDS011;10936;49.836;7.078;2023-02-13T18:21:31;3.93;;;1.97;;